Time;durP1;ratioP1;P1;durP2;ratioP2;P2;SDS_P1;SDS_P2;PMS_P1;PMS_P2;Temp;Humidity;BMP_temperature;BMP_pressure;BME280_temperature;BME280_humidity;BME280_pressure;Samples;Min_cycle;Max_cycle;Signal;HPM_P1;HPM_P2
2020/12/07 00:01:25;;;;;;;47.53;27.88;;;4.80;99.90;;;;;;6271433;28;20053;-76
2020/12/07 00:04:26;;;;;;;53.13;28.75;;;4.70;99.90;;;;;;6271166;28;20708;-76
2020/12/07 00:07:28;;;;;;;56.25;30.38;;;4.70;99.90;;;;;;6271268;28;20466;-76
2020/12/07 00:10:30;;;;;;;57.15;32.45;;;4.70;99.90;;;;;;6270966;28;20077;-76
2020/12/07 00:13:31;;;;;;;56.83;30.73;;;4.70;99.90;;;;;;6275218;28;20178;-76
2020/12/07 00:16:32;;;;;;;59.05;33.13;;;4.70;99.90;;;;;;6275196;28;20421;-76
2020/12/07 00:19:33;;;;;;;54.50;33.78;;;4.60;99.90;;;;;;6261196;28;20055;-76
2020/12/07 00:22:36;;;;;;;63.03;33.08;;;4.60;99.90;;;;;;6250609;28;20124;-76
2020/12/07 00:25:38;;;;;;;55.30;33.22;;;4.60;99.90;;;;;;6250770;28;20414;-76
2020/12/07 00:28:39;;;;;;;57.30;33.15;;;4.70;99.90;;;;;;6250608;28;20080;-76
2020/12/07 00:31:40;;;;;;;61.42;34.20;;;4.60;99.90;;;;;;6251423;28;20435;-77
2020/12/07 00:34:41;;;;;;;60.15;34.53;;;4.70;99.90;;;;;;6249940;28;20041;-76
2020/12/07 00:37:43;;;;;;;65.43;35.50;;;4.60;99.90;;;;;;6249821;28;20073;-76
2020/12/07 00:40:45;;;;;;;66.60;35.75;;;4.60;99.90;;;;;;6250234;28;20041;-76
2020/12/07 00:43:46;;;;;;;54.90;33.47;;;4.50;99.90;;;;;;6250386;28;20049;-77
2020/12/07 00:46:47;;;;;;;65.38;37.30;;;4.50;99.90;;;;;;6251056;28;20605;-77
2020/12/07 00:49:49;;;;;;;71.05;37.88;;;4.50;99.90;;;;;;6249623;28;20544;-76
2020/12/07 00:52:51;;;;;;;64.60;37.60;;;4.40;99.90;;;;;;6250273;28;20048;-76
2020/12/07 00:55:52;;;;;;;56.80;34.40;;;4.40;99.90;;;;;;6250659;28;20192;-77
2020/12/07 00:58:53;;;;;;;65.40;35.35;;;4.50;99.90;;;;;;6249164;28;20048;-76
2020/12/07 01:01:55;;;;;;;62.80;36.03;;;4.40;99.90;;;;;;6249821;28;20067;-77
2020/12/07 01:04:57;;;;;;;62.67;35.83;;;4.40;99.90;;;;;;6249486;28;20641;-76
2020/12/07 01:07:59;;;;;;;60.88;34.95;;;4.40;99.90;;;;;;6250076;28;20059;-77
2020/12/07 01:11:00;;;;;;;54.58;29.95;;;4.40;99.90;;;;;;6249214;28;20059;-76
2020/12/07 01:14:01;;;;;;;61.08;32.88;;;4.30;99.90;;;;;;6249762;28;20102;-77
2020/12/07 01:17:03;;;;;;;52.58;32.75;;;4.30;99.90;;;;;;6270740;28;20170;-76
2020/12/07 01:20:04;;;;;;;54.50;32.03;;;4.30;99.90;;;;;;6273936;28;20080;-77
2020/12/07 01:23:06;;;;;;;54.72;29.83;;;4.40;99.90;;;;;;6273379;28;20041;-77
2020/12/07 01:26:08;;;;;;;46.83;29.88;;;4.40;99.90;;;;;;6274243;28;20560;-77
2020/12/07 01:29:10;;;;;;;50.72;27.05;;;4.40;99.90;;;;;;6273752;28;20047;-76
2020/12/07 01:32:11;;;;;;;48.95;29.33;;;4.40;99.90;;;;;;6275013;28;20049;-77
2020/12/07 01:35:12;;;;;;;53.28;30.15;;;4.50;99.90;;;;;;6274368;28;20069;-77
2020/12/07 01:38:14;;;;;;;47.95;30.80;;;4.50;99.90;;;;;;6273852;28;20098;-77
2020/12/07 01:41:15;;;;;;;52.33;28.60;;;4.50;99.90;;;;;;6274277;28;20671;-76
2020/12/07 01:44:17;;;;;;;47.35;28.73;;;4.50;99.90;;;;;;6274703;28;20503;-77
2020/12/07 01:47:22;;;;;;;42.88;27.02;;;4.60;99.90;;;;;;6274120;28;20052;-76
2020/12/07 01:50:23;;;;;;;45.70;25.30;;;4.60;99.90;;;;;;6274292;28;20052;-76
2020/12/07 01:53:26;;;;;;;42.78;26.27;;;4.70;99.90;;;;;;6273848;28;20045;-76
2020/12/07 01:56:29;;;;;;;47.50;30.02;;;4.70;99.90;;;;;;6274110;28;20130;-76
2020/12/07 01:59:30;;;;;;;40.75;27.45;;;4.70;99.90;;;;;;6280450;28;20187;-75
2020/12/07 02:02:31;;;;;;;42.55;25.83;;;4.80;99.90;;;;;;6287135;28;20041;-77
2020/12/07 02:05:35;;;;;;;34.50;22.40;;;4.80;99.90;;;;;;6274812;28;20104;-77
2020/12/07 02:08:37;;;;;;;34.20;21.80;;;4.80;99.90;;;;;;6274674;28;20049;-76
2020/12/07 02:11:38;;;;;;;30.30;20.58;;;4.80;99.90;;;;;;6275219;28;20053;-77
2020/12/07 02:14:39;;;;;;;24.25;16.77;;;4.80;99.90;;;;;;6273715;28;20083;-77
2020/12/07 02:17:40;;;;;;;18.50;15.57;;;4.80;99.90;;;;;;6272710;28;20067;-76
2020/12/07 02:20:47;;;;;;;21.23;14.23;;;4.80;99.90;;;;;;6273365;28;20054;-77
2020/12/07 02:23:49;;;;;;;15.82;11.23;;;4.80;99.90;;;;;;6273256;28;20828;-77
2020/12/07 02:26:50;;;;;;;14.38;10.25;;;4.80;99.90;;;;;;6272538;28;20536;-77
2020/12/07 02:29:52;;;;;;;12.50;9.00;;;4.80;99.90;;;;;;6272698;28;20045;-76
2020/12/07 02:32:54;;;;;;;9.88;7.50;;;4.80;99.90;;;;;;6272776;28;20048;-77
2020/12/07 02:35:56;;;;;;;11.98;7.68;;;4.80;99.90;;;;;;6273070;28;20113;-76
2020/12/07 02:38:57;;;;;;;8.90;6.55;;;4.80;99.80;;;;;;6272391;28;20045;-76
2020/12/07 02:41:59;;;;;;;7.32;6.30;;;4.80;99.70;;;;;;6271972;28;20063;-76
2020/12/07 02:45:01;;;;;;;7.13;6.22;;;4.80;99.60;;;;;;6272868;28;20043;-77
2020/12/07 02:48:02;;;;;;;8.20;5.20;;;4.70;99.40;;;;;;6273458;28;20049;-77
2020/12/07 02:51:04;;;;;;;7.25;5.47;;;4.70;99.20;;;;;;6273195;28;20457;-77
2020/12/07 02:54:17;;;;;;;8.70;5.25;;;4.70;98.80;;;;;;6273434;28;20045;-77
2020/12/07 02:57:18;;;;;;;7.80;5.85;;;4.60;98.80;;;;;;6301141;28;20043;-75
2020/12/07 03:00:19;;;;;;;7.65;6.22;;;4.70;99.10;;;;;;6305360;28;20063;-76
2020/12/07 03:03:20;;;;;;;7.93;5.07;;;4.60;99.00;;;;;;6304120;28;20032;-76
2020/12/07 03:06:23;;;;;;;10.05;6.28;;;4.60;99.30;;;;;;6303572;28;20079;-76
2020/12/07 03:09:24;;;;;;;11.32;6.15;;;4.60;99.00;;;;;;6303396;28;20033;-76
2020/12/07 03:12:25;;;;;;;14.35;8.27;;;4.60;99.10;;;;;;6303186;28;20060;-76
2020/12/07 03:15:26;;;;;;;13.15;9.85;;;4.60;99.10;;;;;;6287493;28;20140;-76
2020/12/07 03:18:28;;;;;;;14.75;9.55;;;4.60;99.00;;;;;;6273359;28;20184;-75
2020/12/07 03:21:30;;;;;;;10.63;7.90;;;4.60;99.10;;;;;;6273099;28;20128;-76
2020/12/07 03:24:31;;;;;;;14.82;10.40;;;4.60;99.10;;;;;;6271846;28;20052;-76
2020/12/07 03:27:32;;;;;;;16.50;11.55;;;4.60;99.10;;;;;;6271681;28;20048;-76
2020/12/07 03:30:33;;;;;;;14.27;10.60;;;4.60;99.00;;;;;;6271422;28;20067;-76
2020/12/07 03:33:35;;;;;;;19.15;11.48;;;4.60;99.10;;;;;;6271357;28;20128;-76
2020/12/07 03:36:37;;;;;;;26.17;16.35;;;4.60;99.20;;;;;;6270572;28;20407;-76
2020/12/07 03:39:38;;;;;;;23.00;15.25;;;4.60;99.40;;;;;;6271031;28;20073;-76
2020/12/07 03:42:39;;;;;;;23.60;14.40;;;4.60;99.40;;;;;;6270678;28;20414;-76
2020/12/07 03:45:43;;;;;;;24.00;15.40;;;4.60;99.50;;;;;;6270643;28;20154;-75
2020/12/07 03:48:44;;;;;;;22.83;13.73;;;4.70;99.60;;;;;;6269996;28;20051;-76
2020/12/07 03:51:46;;;;;;;27.05;15.98;;;4.60;99.60;;;;;;6271368;28;20084;-76
2020/12/07 03:54:47;;;;;;;22.83;15.52;;;4.60;99.70;;;;;;6270375;28;20045;-75
2020/12/07 03:57:49;;;;;;;26.05;18.42;;;4.60;99.60;;;;;;6270137;28;20051;-76
2020/12/07 04:00:50;;;;;;;24.77;15.82;;;4.60;99.60;;;;;;6270653;28;20045;-76
2020/12/07 04:03:56;;;;;;;21.20;14.55;;;4.60;99.50;;;;;;6271028;28;20045;-75
2020/12/07 04:06:58;;;;;;;27.27;16.95;;;4.70;99.70;;;;;;6270372;28;20119;-76
2020/12/07 04:09:59;;;;;;;26.17;14.65;;;4.70;99.70;;;;;;6270422;28;20128;-76
2020/12/07 04:13:01;;;;;;;25.48;17.42;;;4.70;99.70;;;;;;6270309;28;20049;-75
2020/12/07 04:16:03;;;;;;;25.23;15.90;;;4.70;99.60;;;;;;6270658;28;20095;-76
2020/12/07 04:19:04;;;;;;;23.67;14.38;;;4.70;99.60;;;;;;6269597;28;20056;-75
2020/12/07 04:22:06;;;;;;;22.98;14.65;;;4.80;99.40;;;;;;6269692;28;20080;-75
2020/12/07 04:25:08;;;;;;;23.48;15.35;;;4.70;99.40;;;;;;6270327;28;20049;-75
2020/12/07 04:28:09;;;;;;;22.95;15.15;;;4.70;99.40;;;;;;6270139;28;20130;-75
2020/12/07 04:31:10;;;;;;;22.20;14.23;;;4.70;99.30;;;;;;6270174;28;20056;-76
2020/12/07 04:34:11;;;;;;;21.52;14.15;;;4.70;99.40;;;;;;6270281;28;20053;-76
2020/12/07 04:37:13;;;;;;;20.63;14.50;;;4.70;99.40;;;;;;6269905;28;20041;-76
2020/12/07 04:40:15;;;;;;;19.42;12.55;;;4.80;99.40;;;;;;6270004;28;20055;-76
2020/12/07 04:43:17;;;;;;;21.27;12.93;;;4.80;99.30;;;;;;6269827;28;20122;-77
2020/12/07 04:46:18;;;;;;;20.65;13.02;;;4.80;99.40;;;;;;6270367;28;20045;-77
2020/12/07 04:49:21;;;;;;;22.35;12.70;;;4.80;99.40;;;;;;6269943;28;20052;-76
2020/12/07 04:52:24;;;;;;;19.90;12.75;;;4.80;99.30;;;;;;6270004;28;20407;-76
2020/12/07 04:55:26;;;;;;;19.70;13.35;;;4.80;99.20;;;;;;6270209;28;20052;-76
2020/12/07 04:58:27;;;;;;;18.35;12.38;;;4.80;99.20;;;;;;6270314;28;20499;-76
2020/12/07 05:01:29;;;;;;;27.95;16.70;;;4.80;99.30;;;;;;6274367;28;20514;-76
2020/12/07 05:04:30;;;;;;;23.20;13.65;;;4.90;99.30;;;;;;6274906;28;20075;-76
2020/12/07 05:07:33;;;;;;;24.00;14.52;;;4.80;99.00;;;;;;6274592;28;20079;-76
2020/12/07 05:10:39;;;;;;;25.00;16.67;;;4.90;98.90;;;;;;6274382;28;20052;-76
2020/12/07 05:13:45;;;;;;;22.63;16.05;;;4.90;99.00;;;;;;6274625;28;20103;-75
2020/12/07 05:16:47;;;;;;;23.50;13.88;;;4.90;98.90;;;;;;6274658;28;20047;-76
2020/12/07 05:19:49;;;;;;;24.85;15.70;;;4.90;99.10;;;;;;6278683;28;20049;-75
2020/12/07 05:22:52;;;;;;;26.75;17.73;;;4.90;99.40;;;;;;6277058;28;20498;-76
2020/12/07 05:25:53;;;;;;;28.15;18.05;;;4.90;99.20;;;;;;6275657;28;20167;-76
2020/12/07 05:29:04;;;;;;;27.67;17.42;;;4.90;99.30;;;;;;6274638;28;20045;-76
2020/12/07 05:32:05;;;;;;;29.30;18.63;;;5.00;99.10;;;;;;6275347;28;20550;-76
2020/12/07 05:35:07;;;;;;;31.08;19.00;;;5.00;99.20;;;;;;6275321;28;20132;-75
2020/12/07 05:38:09;;;;;;;26.10;17.83;;;5.00;99.30;;;;;;6274320;28;20406;-76
2020/12/07 05:41:11;;;;;;;34.42;18.25;;;5.00;99.40;;;;;;6274206;28;20554;-76
2020/12/07 05:44:13;;;;;;;30.65;17.52;;;5.00;99.40;;;;;;6274782;28;20057;-76
2020/12/07 05:47:18;;;;;;;33.30;19.67;;;5.00;99.40;;;;;;6273463;28;20061;-76
2020/12/07 05:50:21;;;;;;;34.45;18.92;;;5.00;99.40;;;;;;6273585;28;20128;-76
2020/12/07 05:53:25;;;;;;;29.98;17.83;;;5.00;99.40;;;;;;6273607;28;20052;-76
2020/12/07 05:56:31;;;;;;;32.17;17.73;;;5.00;99.40;;;;;;6273867;28;20099;-76
2020/12/07 05:59:39;;;;;;;30.63;18.45;;;5.00;99.30;;;;;;6274069;28;20107;-76
2020/12/07 06:02:45;;;;;;;29.63;18.15;;;5.00;99.40;;;;;;6273048;28;20041;-76
2020/12/07 06:05:47;;;;;;;32.10;21.38;;;5.00;99.50;;;;;;6272956;28;20128;-75
2020/12/07 06:08:50;;;;;;;33.47;24.20;;;5.00;99.50;;;;;;6272386;28;20132;-76
2020/12/07 06:12:06;;;;;;;34.78;21.10;;;5.00;99.70;;;;;;6272938;28;20136;-76
2020/12/07 06:15:07;;;;;;;33.35;21.15;;;5.00;99.60;;;;;;6272821;28;20170;-75
2020/12/07 06:18:22;;;;;;;35.28;21.23;;;5.00;99.70;;;;;;6272826;28;20045;-76
2020/12/07 06:21:24;;;;;;;39.38;21.52;;;4.90;99.60;;;;;;6273185;28;20110;-76
2020/12/07 06:24:38;;;;;;;33.88;21.95;;;5.00;99.70;;;;;;6272819;28;20041;-76
2020/12/07 06:27:39;;;;;;;32.45;19.67;;;4.90;99.70;;;;;;6273712;28;20076;-76
2020/12/07 06:30:42;;;;;;;38.30;21.20;;;4.90;99.70;;;;;;6272775;28;20399;-77
2020/12/07 06:33:45;;;;;;;33.97;20.77;;;4.90;99.70;;;;;;6272317;28;20680;-77
2020/12/07 06:36:49;;;;;;;38.08;21.50;;;4.90;99.80;;;;;;6272164;28;20147;-77
2020/12/07 06:39:51;;;;;;;37.45;23.15;;;4.90;99.70;;;;;;6272572;28;20053;-77
2020/12/07 06:42:53;;;;;;;33.03;21.77;;;4.90;99.80;;;;;;6272037;28;20103;-77
2020/12/07 06:45:54;;;;;;;36.72;23.05;;;4.90;99.60;;;;;;6272194;28;20593;-77
2020/12/07 06:48:56;;;;;;;40.08;22.48;;;4.80;99.60;;;;;;6271989;28;20174;-77
2020/12/07 06:52:02;;;;;;;39.42;21.77;;;4.80;99.70;;;;;;6271718;28;20542;-77
2020/12/07 06:55:08;;;;;;;34.42;21.85;;;4.90;99.70;;;;;;6271587;28;20083;-77
2020/12/07 06:58:09;;;;;;;33.70;23.15;;;4.90;99.80;;;;;;6271788;28;20049;-77
2020/12/07 07:01:13;;;;;;;37.90;23.77;;;4.80;99.70;;;;;;6271470;28;20131;-77
2020/12/07 07:04:20;;;;;;;34.45;22.85;;;4.80;99.70;;;;;;6264542;28;21563;-77
2020/12/07 07:07:23;;;;;;;37.30;24.10;;;4.80;99.80;;;;;;6270947;28;20502;-77
2020/12/07 07:10:25;;;;;;;35.50;23.25;;;4.80;99.80;;;;;;6271054;28;20049;-77
2020/12/07 07:13:26;;;;;;;34.28;18.77;;;4.80;99.90;;;;;;6271365;28;20094;-77
2020/12/07 07:16:28;;;;;;;39.10;22.88;;;4.80;99.90;;;;;;6271194;28;20060;-77
2020/12/07 07:19:29;;;;;;;34.40;23.60;;;4.80;99.90;;;;;;6271355;28;20565;-76
2020/12/07 07:22:31;;;;;;;37.50;22.88;;;4.80;99.90;;;;;;6270961;28;20112;-77
2020/12/07 07:25:49;;;;;;;33.38;22.73;;;4.80;99.90;;;;;;6270828;28;20525;-76
2020/12/07 07:28:51;;;;;;;;;;;4.80;99.90;;;;;;6270928;28;20044;-76
2020/12/07 07:31:52;;;;;;;34.58;20.63;;;4.90;99.90;;;;;;6271804;28;19917;-76
2020/12/07 07:34:54;;;;;;;40.50;23.40;;;4.90;99.90;;;;;;6271353;28;20756;-77
2020/12/07 07:37:56;;;;;;;34.80;22.70;;;5.00;99.90;;;;;;6271128;28;20132;-77
2020/12/07 07:40:58;;;;;;;34.17;21.92;;;5.00;99.90;;;;;;6270703;28;20460;-77
2020/12/07 07:44:00;;;;;;;33.78;22.70;;;5.10;99.90;;;;;;6271172;28;20425;-77
2020/12/07 07:47:05;;;;;;;35.88;24.27;;;5.20;99.70;;;;;;6270422;28;20187;-76
2020/12/07 07:50:23;;;;;;;27.83;18.95;;;5.30;99.60;;;;;;6270805;28;20104;-76
2020/12/07 08:17:14;;;;;;;29.58;20.83;;;5.60;98.30;;;;;;6220759;28;20110;-77
2020/12/07 08:20:17;;;;;;;30.15;18.42;;;5.60;98.60;;;;;;6246077;28;20393;-76
2020/12/07 08:23:27;;;;;;;29.83;18.13;;;5.70;98.30;;;;;;6245641;28;20049;-77
2020/12/07 08:26:28;;;;;;;30.83;22.23;;;5.80;98.00;;;;;;6245248;28;20056;-77
2020/12/07 08:29:38;;;;;;;30.98;19.48;;;5.80;97.50;;;;;;6246908;28;20124;-78
2020/12/07 08:32:39;;;;;;;26.23;19.10;;;5.80;97.50;;;;;;6223552;28;20056;-76
2020/12/07 08:35:40;;;;;;;30.77;18.42;;;5.90;97.60;;;;;;6259387;28;20064;-76
2020/12/07 08:38:42;;;;;;;24.05;17.65;;;5.90;97.70;;;;;;6254626;28;20408;-77
2020/12/07 08:41:43;;;;;;;27.45;19.10;;;5.90;97.70;;;;;;6252836;28;20051;-76
2020/12/07 08:44:46;;;;;;;30.10;19.13;;;5.90;97.40;;;;;;6251938;28;20041;-77
2020/12/07 08:47:47;;;;;;;30.40;19.80;;;6.00;97.50;;;;;;6252508;28;20104;-77
2020/12/07 08:50:48;;;;;;;30.50;19.05;;;6.00;97.50;;;;;;6250611;28;20107;-76
2020/12/07 08:53:50;;;;;;;27.42;18.95;;;6.00;97.50;;;;;;6250555;28;20195;-75
2020/12/07 08:56:51;;;;;;;29.25;20.38;;;6.10;97.50;;;;;;6249983;28;20048;-76
2020/12/07 08:59:54;;;;;;;27.08;19.17;;;6.20;97.50;;;;;;6249985;28;20140;-75
2020/12/07 09:02:55;;;;;;;26.67;17.75;;;6.20;97.30;;;;;;6249673;28;20124;-75
2020/12/07 09:05:56;;;;;;;25.60;18.23;;;6.30;97.20;;;;;;6254988;28;20037;-76
2020/12/07 09:08:57;;;;;;;24.30;17.83;;;6.30;97.20;;;;;;6275265;28;20119;-75
2020/12/07 09:11:59;;;;;;;26.15;16.30;;;6.40;96.90;;;;;;6274962;28;20056;-75
2020/12/07 09:15:01;;;;;;;26.58;18.02;;;6.50;96.80;;;;;;6274708;28;20120;-76
2020/12/07 09:18:02;;;;;;;20.40;15.70;;;6.60;96.50;;;;;;6275627;28;20095;-76
2020/12/07 09:21:04;;;;;;;21.38;14.80;;;6.70;96.20;;;;;;6276308;28;20128;-76
2020/12/07 09:24:05;;;;;;;20.83;15.68;;;6.80;95.70;;;;;;6275951;28;20141;-75
2020/12/07 09:27:07;;;;;;;22.73;16.77;;;6.80;95.40;;;;;;6275288;28;20059;-76
2020/12/07 09:30:09;;;;;;;19.60;15.02;;;6.90;95.30;;;;;;6275339;28;20099;-77
2020/12/07 09:33:11;;;;;;;23.40;16.63;;;7.10;94.60;;;;;;6275606;28;20096;-76
2020/12/07 09:36:12;;;;;;;17.23;13.23;;;7.60;95.20;;;;;;6276789;28;20504;-76
2020/12/07 09:39:14;;;;;;;17.38;12.65;;;8.00;93.00;;;;;;6275917;28;20060;-76
2020/12/07 09:42:15;;;;;;;16.90;11.80;;;8.60;91.80;;;;;;6278273;28;20303;-75
2020/12/07 09:45:17;;;;;;;15.77;10.18;;;8.60;90.60;;;;;;6275709;28;20068;-74
2020/12/07 09:48:18;;;;;;;13.05;9.88;;;8.90;89.80;;;;;;6277405;28;20132;-75
2020/12/07 09:51:20;;;;;;;13.63;9.88;;;9.00;88.40;;;;;;6275934;28;20099;-75
2020/12/07 09:54:21;;;;;;;14.35;10.40;;;9.10;87.90;;;;;;6276039;28;20119;-75
2020/12/07 09:57:23;;;;;;;11.73;8.88;;;9.30;85.80;;;;;;6274899;28;20053;-75
2020/12/07 10:00:25;;;;;;;14.63;11.45;;;9.40;86.00;;;;;;6265068;28;20045;-75
2020/12/07 10:03:26;;;;;;;11.45;9.10;;;9.50;85.10;;;;;;6272060;28;20048;-75
2020/12/07 10:06:29;;;;;;;15.00;9.77;;;9.60;84.20;;;;;;6271558;28;20090;-75
2020/12/07 10:09:30;;;;;;;12.98;8.13;;;9.60;83.10;;;;;;6273894;28;20041;-75
2020/12/07 10:12:32;;;;;;;15.05;9.18;;;9.80;82.60;;;;;;6271940;28;20075;-75
2020/12/07 10:15:34;;;;;;;11.15;9.32;;;10.00;81.40;;;;;;6269586;28;20518;-75
2020/12/07 10:18:35;;;;;;;8.88;7.93;;;10.10;80.40;;;;;;6273543;28;20388;-76
2020/12/07 10:21:37;;;;;;;12.57;8.95;;;10.10;79.10;;;;;;6271190;28;20048;-75
2020/12/07 10:24:38;;;;;;;10.65;7.68;;;10.10;79.40;;;;;;6261227;28;20156;-75
2020/12/07 10:27:39;;;;;;;10.10;7.65;;;10.20;79.20;;;;;;6268898;28;20068;-75
2020/12/07 10:30:41;;;;;;;9.75;7.28;;;10.30;78.90;;;;;;6270509;28;20128;-75
2020/12/07 10:33:43;;;;;;;10.77;8.00;;;10.40;77.10;;;;;;6275697;28;20060;-76
2020/12/07 10:36:45;;;;;;;12.18;8.38;;;10.30;77.60;;;;;;6272787;28;20736;-75
2020/12/07 10:39:46;;;;;;;9.95;8.13;;;10.30;77.50;;;;;;6267907;28;20125;-75
2020/12/07 10:42:48;;;;;;;9.32;7.28;;;10.30;77.80;;;;;;6274254;28;20040;-75
2020/12/07 10:45:50;;;;;;;10.07;8.38;;;10.30;76.50;;;;;;6258426;28;20522;-75
2020/12/07 10:48:51;;;;;;;10.15;8.13;;;10.10;75.50;;;;;;6251629;28;20049;-76
2020/12/07 10:51:52;;;;;;;9.80;8.00;;;9.90;76.80;;;;;;6269228;28;20053;-77
2020/12/07 10:54:54;;;;;;;9.82;7.57;;;9.80;77.60;;;;;;6274279;28;20041;-76
2020/12/07 10:57:57;;;;;;;9.77;7.53;;;9.60;77.10;;;;;;6258991;28;20049;-76
2020/12/07 11:00:59;;;;;;;11.57;8.98;;;9.20;79.40;;;;;;6238269;28;20049;-76
2020/12/07 11:04:00;;;;;;;8.50;6.85;;;8.80;79.60;;;;;;6248849;28;20061;-76
2020/12/07 11:07:03;;;;;;;12.07;6.95;;;8.50;80.50;;;;;;6242890;28;20469;-76
2020/12/07 11:10:05;;;;;;;9.30;7.47;;;8.30;80.80;;;;;;6248690;28;20085;-76
2020/12/07 11:13:16;;;;;;;12.45;7.68;;;8.10;81.70;;;;;;6252784;28;20110;-76
2020/12/07 11:16:23;;;;;;;14.18;9.68;;;8.00;82.40;;;;;;6270556;28;20735;-76
2020/12/07 11:19:24;;;;;;;16.80;10.98;;;8.00;82.90;;;;;;6270696;28;20080;-76
2020/12/07 11:22:26;;;;;;;13.80;8.73;;;7.90;82.70;;;;;;6267827;28;20041;-76
2020/12/07 11:25:27;;;;;;;12.25;8.55;;;7.80;83.10;;;;;;6268059;28;20110;-77
2020/12/07 11:28:28;;;;;;;12.63;9.20;;;7.70;84.10;;;;;;6270237;28;20418;-76
2020/12/07 11:31:31;;;;;;;13.23;8.65;;;7.70;84.70;;;;;;6270419;28;20549;-76
2020/12/07 11:34:32;;;;;;;15.00;8.68;;;7.80;85.20;;;;;;6272460;28;20033;-75
2020/12/07 11:37:33;;;;;;;13.35;8.57;;;8.00;84.20;;;;;;6269253;28;20175;-76
2020/12/07 11:40:51;;;;;;;13.85;10.00;;;8.10;84.60;;;;;;6272466;28;20067;-76
2020/12/07 11:44:05;;;;;;;14.70;10.38;;;8.10;84.30;;;;;;6267952;28;20056;-77
2020/12/07 11:47:09;;;;;;;16.90;10.20;;;8.10;83.90;;;;;;6281862;28;20046;-75
2020/12/07 11:50:10;;;;;;;13.85;11.20;;;8.10;84.00;;;;;;6267751;28;20487;-75
2020/12/07 11:53:12;;;;;;;14.27;10.07;;;8.00;84.60;;;;;;6270547;28;20119;-76
2020/12/07 11:56:13;;;;;;;14.82;9.00;;;8.10;84.30;;;;;;6270910;28;20514;-76
2020/12/07 11:59:15;;;;;;;14.02;9.30;;;8.00;84.40;;;;;;6269832;28;20060;-76
2020/12/07 12:02:18;;;;;;;13.35;8.52;;;8.20;85.50;;;;;;6268917;28;20040;-76
2020/12/07 12:05:19;;;;;;;16.50;10.15;;;8.40;84.80;;;;;;6271973;28;20131;-77
2020/12/07 12:08:20;;;;;;;16.48;8.82;;;8.80;82.80;;;;;;6274889;28;20139;-77
2020/12/07 12:11:27;;;;;;;15.07;10.65;;;9.20;81.80;;;;;;6278118;28;20061;-77
2020/12/07 12:14:28;;;;;;;17.38;10.20;;;9.50;81.20;;;;;;6278083;28;20617;-77
2020/12/07 12:17:30;;;;;;;20.80;9.63;;;9.50;81.40;;;;;;6277788;28;20450;-77
2020/12/07 12:20:32;;;;;;;12.07;9.85;;;9.30;80.70;;;;;;6277508;28;20103;-78
2020/12/07 12:23:33;;;;;;;12.52;8.50;;;9.20;81.10;;;;;;6275935;28;20052;-77
2020/12/07 12:26:36;;;;;;;14.38;9.85;;;9.20;81.50;;;;;;6277145;28;20475;-74
2020/12/07 12:29:39;;;;;;;13.55;9.57;;;9.10;80.70;;;;;;6275267;28;20045;-77
2020/12/07 12:32:41;;;;;;;10.32;9.35;;;9.00;79.90;;;;;;6276570;28;20060;-75
2020/12/07 12:35:42;;;;;;;13.82;9.73;;;8.90;81.10;;;;;;6275777;28;20122;-75
2020/12/07 12:38:43;;;;;;;15.30;10.40;;;8.70;81.90;;;;;;6274996;28;20057;-76
2020/12/07 12:41:45;;;;;;;14.07;9.07;;;8.70;82.50;;;;;;6268449;28;20072;-75
2020/12/07 12:44:46;;;;;;;12.65;9.00;;;8.60;82.30;;;;;;6267350;28;20117;-75
2020/12/07 12:47:48;;;;;;;12.23;10.27;;;8.50;83.30;;;;;;6261918;28;20049;-76
2020/12/07 12:50:50;;;;;;;12.90;8.73;;;8.40;81.80;;;;;;6274122;28;20167;-75
2020/12/07 12:53:51;;;;;;;17.00;13.88;;;8.30;82.80;;;;;;6272435;28;20522;-78
2020/12/07 12:56:52;;;;;;;13.90;12.23;;;8.20;84.00;;;;;;6275411;28;20056;-77
2020/12/07 12:59:54;;;;;;;13.48;9.73;;;8.20;83.80;;;;;;6276176;28;20045;-77
2020/12/07 13:02:56;;;;;;;18.80;11.63;;;8.20;83.80;;;;;;6271606;28;20049;-76
2020/12/07 13:05:58;;;;;;;20.35;12.95;;;8.10;83.60;;;;;;6279737;28;20044;-75
2020/12/07 13:08:59;;;;;;;21.00;13.52;;;8.10;83.70;;;;;;6269498;28;20118;-77
2020/12/07 13:12:00;;;;;;;16.63;11.68;;;8.20;84.70;;;;;;6274007;28;20081;-78
2020/12/07 13:15:04;;;;;;;15.10;10.75;;;8.20;84.10;;;;;;6275580;28;20571;-77
2020/12/07 13:18:08;;;;;;;14.25;9.93;;;8.10;85.50;;;;;;6263546;28;20069;-76
2020/12/07 13:21:16;;;;;;;12.85;9.45;;;8.20;85.70;;;;;;6272670;28;20511;-78
2020/12/07 13:24:21;;;;;;;11.25;9.70;;;8.30;84.70;;;;;;6276635;28;20084;-77
2020/12/07 13:27:34;;;;;;;16.83;9.02;;;8.40;83.50;;;;;;6273843;28;20119;-77
2020/12/07 13:30:35;;;;;;;11.57;9.60;;;8.50;83.10;;;;;;6274766;28;20045;-77
2020/12/07 13:33:40;;;;;;;13.32;9.50;;;8.60;82.20;;;;;;6275754;28;20443;-78
2020/12/07 13:36:44;;;;;;;13.48;9.43;;;8.60;82.00;;;;;;6270792;28;20406;-78
2020/12/07 13:39:45;;;;;;;15.23;9.18;;;8.60;82.10;;;;;;6273408;28;20035;-78
2020/12/07 13:42:47;;;;;;;14.25;10.73;;;8.60;81.90;;;;;;6267795;28;20049;-78
2020/12/07 13:45:48;;;;;;;152.27;94.63;;;8.50;82.30;;;;;;6269976;28;20037;-77
2020/12/07 13:48:50;;;;;;;21.65;14.40;;;8.50;82.80;;;;;;6270741;28;20179;-77
2020/12/07 13:51:52;;;;;;;20.45;15.18;;;8.50;82.00;;;;;;6267677;28;20178;-77
2020/12/07 13:54:53;;;;;;;56.67;46.58;;;8.40;82.20;;;;;;6270936;28;20064;-77
2020/12/07 13:57:54;;;;;;;11.52;9.02;;;8.30;81.90;;;;;;6272111;28;20053;-77
2020/12/07 14:00:56;;;;;;;14.32;11.63;;;8.30;82.70;;;;;;6269940;28;20079;-76
2020/12/07 14:04:01;;;;;;;18.23;14.38;;;8.20;82.60;;;;;;6275337;28;20052;-76
2020/12/07 14:07:03;;;;;;;14.63;10.38;;;8.10;82.60;;;;;;6268907;28;20108;-77
2020/12/07 14:10:05;;;;;;;13.38;8.20;;;8.10;82.80;;;;;;6263988;28;20049;-77
2020/12/07 14:13:07;;;;;;;12.02;8.88;;;8.00;83.90;;;;;;6271844;28;20063;-78
2020/12/07 14:16:08;;;;;;;11.90;9.25;;;8.00;84.40;;;;;;6271585;28;20138;-77
2020/12/07 14:19:13;;;;;;;13.38;9.85;;;7.90;85.00;;;;;;6269197;28;20052;-76
2020/12/07 14:39:12;;;;;;;14.60;12.88;;;7.50;87.00;;;;;;6266667;28;20052;-77
2020/12/07 14:42:16;;;;;;;14.45;10.85;;;7.50;88.00;;;;;;6272388;28;20041;-77
2020/12/07 14:45:21;;;;;;;14.45;10.52;;;7.40;88.20;;;;;;6271364;28;20492;-77
2020/12/07 14:48:23;;;;;;;14.98;9.73;;;7.40;88.50;;;;;;6263813;28;20064;-77
2020/12/07 14:51:34;;;;;;;11.73;7.72;;;7.30;88.00;;;;;;6272272;28;20124;-77
2020/12/07 14:54:39;;;;;;;13.20;8.75;;;7.10;89.10;;;;;;6271661;28;20051;-77
2020/12/07 15:14:19;;;;;;;14.48;9.45;;;6.50;92.80;;;;;;6267824;28;20042;-77
2020/12/07 15:17:20;;;;;;;12.50;10.30;;;6.40;93.30;;;;;;6277897;28;20049;-79
2020/12/07 15:20:22;;;;;;;14.70;11.32;;;6.30;93.60;;;;;;6279966;28;20061;-80
2020/12/07 15:23:24;;;;;;;14.15;9.32;;;6.20;94.30;;;;;;6277009;28;20045;-79
2020/12/07 15:26:25;;;;;;;15.32;10.80;;;6.20;96.20;;;;;;6274043;28;20036;-78
2020/12/07 15:29:27;;;;;;;15.38;10.38;;;6.10;97.80;;;;;;6275715;28;20044;-77
2020/12/07 15:32:28;;;;;;;16.42;9.63;;;6.00;98.40;;;;;;6273065;28;20491;-78
2020/12/07 15:35:29;;;;;;;21.20;11.63;;;5.90;98.50;;;;;;6272638;28;20141;-78
2020/12/07 15:38:33;;;;;;;14.27;11.25;;;5.80;98.60;;;;;;6276035;28;20545;-78
2020/12/07 15:41:34;;;;;;;17.63;11.43;;;5.70;99.10;;;;;;6275839;28;20064;-79
2020/12/07 15:44:36;;;;;;;15.55;11.00;;;5.60;99.60;;;;;;6269580;28;20132;-80
2020/12/07 15:47:37;;;;;;;15.27;12.05;;;5.60;99.90;;;;;;6270375;28;20057;-79
2020/12/07 15:50:38;;;;;;;14.32;12.20;;;5.60;99.90;;;;;;6274017;28;20048;-79
2020/12/07 15:53:41;;;;;;;13.73;9.75;;;5.60;99.90;;;;;;6299038;28;20057;-78
2020/12/07 15:56:46;;;;;;;16.45;12.20;;;5.60;99.90;;;;;;6302334;28;20055;-78
2020/12/07 15:59:47;;;;;;;14.18;10.55;;;5.60;99.90;;;;;;6294480;28;20029;-77
2020/12/07 16:02:49;;;;;;;17.80;12.30;;;5.60;99.90;;;;;;6295261;28;20040;-75
2020/12/07 16:05:51;;;;;;;15.23;10.13;;;5.60;99.90;;;;;;6290089;28;20092;-75
2020/12/07 16:08:53;;;;;;;15.95;12.18;;;5.60;99.90;;;;;;6295275;28;20318;-75
2020/12/07 16:11:55;;;;;;;16.88;10.68;;;5.60;99.90;;;;;;6278793;28;20049;-75
2020/12/07 16:14:56;;;;;;;15.15;9.57;;;5.60;99.90;;;;;;6269054;28;20037;-74
2020/12/07 16:17:57;;;;;;;28.48;19.30;;;5.50;99.90;;;;;;6266964;28;20128;-74
2020/12/07 16:20:59;;;;;;;16.65;11.85;;;5.50;99.90;;;;;;6267436;28;20151;-75
2020/12/07 16:24:01;;;;;;;16.58;11.88;;;5.50;99.90;;;;;;6267133;28;20053;-74
2020/12/07 16:27:03;;;;;;;14.98;11.07;;;5.30;99.90;;;;;;6266694;28;20052;-75
2020/12/07 16:30:05;;;;;;;15.70;10.73;;;5.20;99.90;;;;;;6269825;28;20574;-75
2020/12/07 16:33:06;;;;;;;15.25;11.23;;;5.20;99.90;;;;;;6268011;28;20119;-75
2020/12/07 16:36:08;;;;;;;14.57;10.57;;;5.10;99.90;;;;;;6271036;28;20048;-75
2020/12/07 16:39:10;;;;;;;20.92;13.63;;;5.10;99.90;;;;;;6267844;28;20056;-76